createdAt,value
2023-02-03T00:00:10.574Z,2.70
2023-02-03T00:02:39.077Z,2.77
2023-02-03T00:05:08.274Z,2.20
2023-02-03T00:07:37.811Z,2.50
2023-02-03T00:10:07.456Z,2.57
2023-02-03T00:12:37.451Z,2.40
2023-02-03T00:15:06.154Z,2.47
2023-02-03T00:17:34.244Z,2.63
2023-02-03T00:20:02.199Z,2.50
2023-02-03T00:22:30.164Z,2.60
2023-02-03T00:24:58.351Z,2.97
2023-02-03T00:27:26.765Z,3.23
2023-02-03T00:29:56.192Z,2.93
2023-02-03T00:32:24.848Z,2.70
2023-02-03T00:34:52.970Z,2.63
2023-02-03T00:37:21.695Z,2.57
2023-02-03T00:39:50.111Z,2.70
2023-02-03T00:42:18.043Z,2.70
2023-02-03T00:44:46.115Z,2.90
2023-02-03T00:47:15.494Z,2.67
2023-02-03T00:49:43.441Z,2.50
2023-02-03T00:55:59.219Z,3.23
2023-02-03T00:58:27.350Z,2.30
2023-02-03T01:00:57.080Z,3.20
2023-02-03T01:03:26.734Z,2.57
2023-02-03T01:06:26.597Z,2.97
2023-02-03T01:08:54.983Z,2.70
2023-02-03T01:11:25.025Z,2.73
2023-02-03T01:13:54.173Z,2.73
2023-02-03T01:16:24.253Z,3.27
2023-02-03T01:18:53.644Z,2.70
2023-02-03T01:21:24.222Z,3.10
2023-02-03T01:23:52.297Z,3.80
2023-02-03T01:26:22.568Z,3.57
2023-02-03T01:28:53.792Z,3.70
2023-02-03T01:31:33.532Z,3.30
2023-02-03T01:34:02.958Z,3.30
2023-02-03T01:36:32.634Z,3.77
2023-02-03T01:39:01.011Z,4.53
2023-02-03T01:41:32.161Z,3.67
2023-02-03T01:44:02.375Z,4.80
2023-02-03T01:46:34.684Z,3.83
2023-02-03T01:49:08.813Z,3.90
2023-02-03T01:51:38.645Z,4.53
2023-02-03T01:54:08.477Z,4.67
2023-02-03T01:56:40.300Z,4.83
2023-02-03T01:59:09.148Z,4.73
2023-02-03T02:01:38.136Z,4.30
2023-02-03T02:04:08.214Z,4.30
2023-02-03T02:06:36.366Z,5.63
2023-02-03T02:09:05.018Z,5.23
2023-02-03T02:11:34.730Z,4.93
2023-02-03T02:14:04.306Z,5.07
2023-02-03T02:16:42.401Z,4.43
2023-02-03T02:19:46.634Z,4.43
2023-02-03T02:22:19.823Z,4.87
2023-02-03T02:25:27.080Z,4.10
2023-02-03T02:28:43.076Z,4.73
2023-02-03T02:35:06.305Z,4.50
2023-02-03T02:37:44.400Z,4.37
2023-02-03T02:40:21.541Z,4.07
2023-02-03T02:43:01.336Z,4.17
2023-02-03T02:45:33.149Z,4.13
2023-02-03T02:51:39.384Z,4.30
2023-02-03T02:54:11.883Z,5.00
2023-02-03T02:56:41.966Z,4.80
2023-02-03T02:59:10.607Z,4.70
2023-02-03T03:01:41.256Z,4.20
2023-02-03T03:04:12.516Z,4.30
2023-02-03T03:06:45.481Z,5.10
2023-02-03T03:09:19.008Z,4.00
2023-02-03T03:11:51.450Z,3.87
2023-02-03T03:14:21.088Z,4.00
2023-02-03T03:16:55.441Z,3.70
2023-02-03T03:19:26.108Z,5.30
2023-02-03T03:21:58.821Z,4.17
2023-02-03T03:24:30.894Z,3.77
2023-02-03T03:27:03.659Z,3.57
2023-02-03T03:29:35.779Z,3.30
2023-02-03T03:32:04.607Z,3.30
2023-02-03T03:34:33.522Z,3.07
2023-02-03T03:37:11.902Z,2.97
2023-02-03T03:39:48.520Z,2.87
2023-02-03T03:42:24.423Z,3.20
2023-02-03T03:44:57.364Z,2.87
2023-02-03T03:47:29.855Z,2.67
2023-02-03T03:49:59.747Z,2.90
2023-02-03T03:52:32.562Z,3.33
2023-02-03T03:55:01.927Z,3.13
2023-02-03T03:57:33.286Z,3.20
2023-02-03T04:00:03.517Z,3.37
2023-02-03T04:02:33.964Z,3.70
2023-02-03T04:05:03.725Z,3.50
2023-02-03T04:07:42.200Z,2.97
2023-02-03T04:10:23.339Z,2.97
2023-02-03T04:12:51.286Z,3.10
2023-02-03T04:15:19.278Z,2.37
2023-02-03T04:17:47.238Z,2.93
2023-02-03T04:20:15.614Z,2.73
2023-02-03T04:22:45.014Z,2.80
2023-02-03T04:25:12.997Z,2.40
2023-02-03T04:27:40.963Z,2.80
2023-02-03T04:30:10.463Z,2.77
2023-02-03T04:32:38.426Z,3.10
2023-02-03T04:35:07.940Z,2.63
2023-02-03T04:37:35.895Z,2.53
2023-02-03T04:40:05.934Z,3.30
2023-02-03T04:42:33.921Z,2.67
2023-02-03T04:45:01.860Z,3.20
2023-02-03T04:47:29.825Z,2.80
2023-02-03T04:49:57.816Z,2.10
2023-02-03T04:52:26.864Z,2.50
2023-02-03T04:54:54.808Z,2.20
2023-02-03T04:57:24.084Z,2.70
2023-02-03T04:59:52.002Z,2.60
2023-02-03T05:02:19.894Z,2.57
2023-02-03T05:04:47.775Z,2.30
2023-02-03T05:07:15.722Z,2.90
2023-02-03T05:09:43.623Z,2.30
2023-02-03T05:12:11.542Z,2.37
2023-02-03T05:14:40.773Z,2.60
2023-02-03T05:17:08.697Z,2.30
2023-02-03T05:19:36.654Z,2.47
2023-02-03T05:22:04.656Z,2.10
2023-02-03T05:24:32.562Z,2.67
2023-02-03T05:27:00.505Z,1.87
2023-02-03T05:29:28.502Z,2.20
2023-02-03T05:31:57.830Z,1.87
2023-02-03T05:34:25.816Z,2.33
2023-02-03T05:36:53.768Z,1.97
2023-02-03T05:39:21.711Z,2.50
2023-02-03T05:41:57.105Z,2.03
2023-02-03T05:44:28.035Z,2.17
2023-02-03T05:46:58.990Z,2.10
2023-02-03T05:49:27.401Z,2.07
2023-02-03T05:51:56.841Z,1.60
2023-02-03T05:54:25.139Z,2.20
2023-02-03T05:56:53.212Z,1.80
2023-02-03T05:59:21.148Z,1.70
2023-02-03T06:01:49.115Z,1.27
2023-02-03T06:04:18.685Z,1.70
2023-02-03T06:06:47.784Z,2.37
2023-02-03T06:09:15.741Z,1.30
2023-02-03T06:11:43.650Z,1.80
2023-02-03T06:14:11.586Z,1.50
2023-02-03T06:16:39.562Z,1.60
2023-02-03T06:19:07.553Z,1.70
2023-02-03T06:21:36.829Z,1.67
2023-02-03T06:24:05.026Z,1.30
2023-02-03T06:26:32.967Z,1.50
2023-02-03T06:29:00.888Z,1.10
2023-02-03T06:31:29.077Z,1.30
2023-02-03T06:33:57.352Z,1.07
2023-02-03T06:36:25.269Z,1.40
2023-02-03T06:38:54.583Z,1.53
2023-02-03T06:41:27.451Z,2.13
2023-02-03T06:43:55.417Z,1.70
2023-02-03T06:46:23.417Z,1.43
2023-02-03T06:48:51.401Z,1.20
2023-02-03T06:51:19.429Z,1.17
2023-02-03T06:53:47.367Z,1.33
2023-02-03T06:56:16.658Z,1.60
2023-02-03T06:58:44.633Z,1.30
2023-02-03T07:01:12.596Z,1.27
2023-02-03T07:03:40.541Z,1.00
2023-02-03T07:06:08.973Z,1.30
2023-02-03T07:08:36.947Z,1.30
2023-02-03T07:11:05.104Z,1.13
2023-02-03T07:13:34.418Z,1.20
2023-02-03T07:16:02.421Z,0.90
2023-02-03T07:18:46.387Z,1.03
2023-02-03T07:21:16.640Z,1.40
2023-02-03T07:23:44.880Z,1.40
2023-02-03T07:26:12.827Z,1.37
2023-02-03T07:28:42.529Z,1.27
2023-02-03T07:31:11.089Z,1.53
2023-02-03T07:33:39.323Z,1.30
2023-02-03T07:36:08.962Z,1.40
2023-02-03T07:38:38.077Z,1.77
2023-02-03T07:41:07.566Z,1.70
2023-02-03T07:43:35.510Z,1.40
2023-02-03T07:46:05.306Z,1.60
2023-02-03T07:48:33.338Z,1.77
2023-02-03T07:51:01.259Z,1.47
2023-02-03T07:53:29.288Z,1.83
2023-02-03T07:56:01.070Z,1.60
2023-02-03T07:58:29.242Z,1.60
2023-02-03T08:00:57.359Z,1.20
2023-02-03T08:03:26.698Z,1.63
2023-02-03T08:05:55.021Z,1.30
2023-02-03T08:08:22.908Z,1.10
2023-02-03T08:10:50.787Z,1.50
2023-02-03T08:13:18.706Z,1.10
2023-02-03T08:15:46.617Z,1.33
2023-02-03T08:18:14.556Z,1.20
2023-02-03T08:20:43.806Z,1.50
2023-02-03T08:23:12.507Z,1.60
2023-02-03T08:25:40.450Z,1.47
2023-02-03T08:28:08.444Z,1.30
2023-02-03T08:30:36.485Z,1.77
2023-02-03T08:33:04.681Z,2.00
2023-02-03T08:35:33.206Z,1.43
2023-02-03T08:38:02.556Z,10.97
2023-02-03T08:40:30.844Z,1.53
2023-02-03T08:42:58.942Z,2.37
2023-02-03T08:45:26.934Z,1.37
2023-02-03T08:47:54.855Z,1.47
2023-02-03T08:50:22.955Z,1.80
2023-02-03T08:52:50.925Z,1.70
2023-02-03T08:55:20.947Z,1.70
2023-02-03T08:57:48.829Z,1.80
2023-02-03T09:00:17.779Z,1.60
2023-02-03T09:02:45.732Z,1.70
2023-02-03T09:05:14.053Z,1.50
2023-02-03T09:07:42.036Z,2.10
2023-02-03T09:10:10.749Z,1.77
2023-02-03T09:12:40.030Z,1.63
2023-02-03T09:15:08.636Z,1.10
2023-02-03T09:17:36.568Z,2.23
2023-02-03T09:20:05.039Z,1.43
2023-02-03T09:22:33.016Z,2.53
2023-02-03T09:25:01.419Z,1.30
2023-02-03T09:27:30.229Z,1.40
2023-02-03T09:29:59.557Z,1.97
2023-02-03T09:32:27.463Z,1.60
2023-02-03T09:34:55.445Z,1.73
2023-02-03T09:37:23.437Z,1.40
2023-02-03T09:39:51.354Z,1.40
2023-02-03T09:42:34.943Z,1.90
2023-02-03T09:45:14.233Z,1.37
2023-02-03T09:47:44.756Z,1.77
2023-02-03T09:50:17.230Z,1.83
2023-02-03T09:52:45.315Z,1.67
2023-02-03T09:55:26.063Z,1.63
2023-02-03T09:57:59.511Z,1.30
2023-02-03T10:00:31.676Z,1.80
2023-02-03T10:03:06.063Z,1.40
2023-02-03T10:05:59.043Z,1.30
2023-02-03T10:08:51.305Z,1.80
2023-02-03T10:11:29.582Z,1.47
2023-02-03T10:14:11.665Z,1.70
2023-02-03T10:17:06.394Z,1.40
2023-02-03T10:19:43.184Z,1.10
2023-02-03T10:22:16.021Z,1.87
2023-02-03T10:24:49.099Z,1.17
2023-02-03T10:27:20.219Z,1.10
2023-02-03T10:29:54.868Z,1.63
2023-02-03T10:32:27.968Z,0.80
2023-02-03T10:34:56.506Z,1.27
2023-02-03T10:37:30.694Z,1.43
2023-02-03T10:40:00.896Z,1.40
2023-02-03T10:42:51.187Z,1.30
2023-02-03T10:45:19.435Z,2.17
2023-02-03T10:47:52.312Z,1.33
2023-02-03T10:50:22.714Z,1.50
2023-02-03T10:52:50.766Z,2.10
2023-02-03T10:55:32.660Z,1.43
2023-02-03T10:58:18.787Z,1.47
2023-02-03T11:00:46.722Z,1.60
2023-02-03T11:03:26.076Z,1.53
2023-02-03T11:06:09.354Z,1.20
2023-02-03T11:08:39.444Z,1.23
2023-02-03T11:11:08.987Z,1.23
2023-02-03T11:13:37.442Z,2.30
2023-02-03T11:16:07.737Z,1.20
2023-02-03T11:18:48.474Z,1.23
2023-02-03T11:21:18.809Z,1.33
2023-02-03T11:23:51.499Z,1.37
2023-02-03T11:26:22.491Z,1.67
2023-02-03T11:28:53.529Z,1.87
2023-02-03T11:31:27.562Z,1.30
2023-02-03T11:33:59.569Z,1.30
2023-02-03T11:36:29.494Z,1.47
2023-02-03T11:39:29.041Z,1.77
2023-02-03T11:41:57.502Z,1.37
2023-02-03T11:44:29.270Z,1.33
2023-02-03T11:47:01.521Z,1.10
2023-02-03T11:49:59.470Z,1.57
2023-02-03T11:52:49.406Z,1.83
2023-02-03T11:55:32.597Z,1.37
2023-02-03T11:58:29.023Z,1.73
2023-02-03T12:01:12.959Z,1.43
2023-02-03T12:04:06.334Z,1.63
2023-02-03T12:07:04.340Z,1.20
2023-02-03T12:09:43.373Z,1.47
2023-02-03T12:12:30.108Z,1.43
2023-02-03T12:15:07.829Z,0.87
2023-02-03T12:18:09.525Z,1.60
2023-02-03T12:20:48.468Z,1.73
2023-02-03T12:23:30.336Z,1.40
2023-02-03T12:26:06.958Z,1.50
2023-02-03T12:28:46.956Z,1.13
2023-02-03T12:31:19.751Z,1.60
2023-02-03T12:33:51.618Z,1.30
2023-02-03T12:36:23.577Z,1.40
2023-02-03T12:39:00.232Z,1.33
2023-02-03T12:41:31.077Z,1.53
2023-02-03T12:44:03.058Z,1.80
2023-02-03T12:46:33.296Z,3.30
2023-02-03T12:49:06.580Z,2.43
2023-02-03T12:51:40.917Z,3.00
2023-02-03T12:54:21.544Z,2.10
2023-02-03T12:56:54.946Z,1.87
2023-02-03T12:59:26.227Z,1.50
2023-02-03T13:01:58.707Z,1.90
2023-02-03T13:04:34.933Z,1.03
2023-02-03T13:07:09.505Z,1.30
2023-02-03T13:09:45.504Z,1.27
2023-02-03T13:12:18.116Z,1.57
2023-02-03T13:14:50.342Z,1.00
2023-02-03T13:17:23.316Z,1.40
2023-02-03T13:19:54.188Z,0.87
2023-02-03T13:22:24.258Z,1.13
2023-02-03T13:24:57.835Z,1.13
2023-02-03T13:27:47.010Z,2.10
2023-02-03T13:30:47.003Z,1.20
2023-02-03T13:33:42.425Z,0.83
2023-02-03T13:36:32.825Z,1.00
2023-02-03T13:39:24.395Z,1.37
2023-02-03T13:41:57.365Z,0.90
2023-02-03T13:44:28.404Z,1.23
2023-02-03T13:47:00.197Z,1.00
2023-02-03T13:49:30.892Z,0.60
2023-02-03T13:51:59.414Z,1.20
2023-02-03T13:54:31.635Z,1.00
2023-02-03T13:57:03.049Z,1.20
2023-02-03T13:59:42.448Z,1.20
2023-02-03T14:02:49.188Z,1.03
2023-02-03T14:05:40.492Z,1.10
2023-02-03T14:08:45.323Z,0.90
2023-02-03T14:11:42.487Z,0.90
2023-02-03T14:14:56.364Z,1.10
2023-02-03T14:19:58.222Z,4.07
2023-02-03T14:22:33.054Z,2.50
2023-02-03T14:25:07.946Z,1.13
2023-02-03T14:27:49.761Z,2.80
2023-02-03T14:30:19.526Z,1.10
2023-02-03T14:32:58.680Z,0.80
2023-02-03T14:35:33.711Z,1.10
2023-02-03T14:38:04.995Z,1.00
2023-02-03T14:40:39.646Z,1.17
2023-02-03T14:43:35.581Z,0.87
2023-02-03T14:46:32.031Z,0.77
2023-02-03T14:49:22.442Z,1.00
2023-02-03T14:55:36.271Z,1.20
2023-02-03T14:58:28.804Z,1.00
2023-02-03T15:00:57.031Z,1.03
2023-02-03T15:03:31.024Z,1.27
2023-02-03T15:06:04.912Z,0.90
2023-02-03T15:08:42.620Z,1.20
2023-02-03T15:11:44.684Z,1.00
2023-02-03T15:14:20.654Z,0.87
2023-02-03T15:16:54.327Z,1.10
2023-02-03T15:19:54.882Z,1.23
2023-02-03T15:23:15.564Z,1.40
2023-02-03T15:25:44.098Z,0.73
2023-02-03T15:28:13.587Z,1.47
2023-02-03T15:30:42.238Z,1.37
2023-02-03T15:33:16.141Z,0.73
2023-02-03T15:35:48.697Z,0.93
2023-02-03T15:38:21.685Z,0.70
2023-02-03T15:40:53.405Z,0.77
2023-02-03T15:43:25.680Z,1.03
2023-02-03T15:46:05.119Z,1.40
2023-02-03T15:48:36.966Z,1.10
2023-02-03T15:51:11.099Z,0.97
2023-02-03T15:53:50.157Z,3.93
2023-02-03T15:56:41.061Z,1.10
2023-02-03T15:59:21.904Z,2.00
2023-02-03T16:01:50.550Z,2.23
2023-02-03T16:04:43.488Z,1.00
2023-02-03T16:07:19.187Z,1.20
2023-02-03T16:09:47.204Z,1.13
2023-02-03T16:12:22.956Z,1.20
2023-02-03T16:15:37.781Z,1.37
2023-02-03T16:18:07.696Z,1.50
2023-02-03T16:20:37.247Z,1.87
2023-02-03T16:23:21.890Z,1.20
2023-02-03T16:26:19.445Z,1.30
2023-02-03T16:29:27.780Z,1.20
2023-02-03T16:32:13.616Z,1.00
2023-02-03T16:35:02.650Z,1.17
2023-02-03T16:37:50.395Z,1.30
2023-02-03T16:40:39.775Z,1.13
2023-02-03T16:43:37.117Z,0.90
2023-02-03T16:52:40.632Z,1.10
2023-02-03T16:55:17.716Z,1.53
2023-02-03T16:57:47.031Z,1.40
2023-02-03T17:00:15.627Z,1.07
2023-02-03T17:02:46.566Z,0.93
2023-02-03T17:05:33.162Z,0.87
2023-02-03T17:08:01.224Z,1.30
2023-02-03T17:10:29.325Z,1.20
2023-02-03T17:12:58.873Z,0.87
2023-02-03T17:15:27.643Z,0.80
2023-02-03T17:18:05.536Z,0.97
2023-02-03T17:20:33.502Z,1.17
2023-02-03T17:25:45.736Z,1.00
2023-02-03T17:28:15.458Z,0.93
2023-02-03T17:30:43.655Z,1.33
2023-02-03T17:33:13.101Z,0.97
2023-02-03T17:35:42.225Z,1.73
2023-02-03T17:38:11.511Z,1.20
2023-02-03T17:55:35.065Z,0.87
2023-02-03T17:58:04.001Z,1.10
2023-02-03T18:00:33.618Z,1.20
2023-02-03T18:03:01.735Z,1.30
2023-02-03T18:05:30.229Z,1.17
2023-02-03T18:08:03.135Z,1.30
2023-02-03T18:10:37.529Z,1.50
2023-02-03T18:13:05.811Z,1.43
2023-02-03T18:15:37.861Z,1.30
2023-02-03T18:18:05.993Z,1.37
2023-02-03T18:20:35.202Z,1.10
2023-02-03T18:23:03.286Z,1.07
2023-02-03T18:25:31.404Z,1.20
2023-02-03T18:28:16.106Z,1.33
2023-02-03T18:30:47.777Z,1.13
2023-02-03T18:33:16.688Z,1.27
2023-02-03T18:35:45.350Z,1.00
2023-02-03T18:38:14.317Z,1.10
2023-02-03T18:40:42.475Z,1.43
2023-02-03T18:43:10.783Z,1.30
2023-02-03T18:45:41.637Z,1.23
2023-02-03T18:48:13.403Z,1.23
2023-02-03T18:50:45.591Z,1.30
2023-02-03T18:53:14.241Z,1.33
2023-02-03T18:55:44.608Z,1.20
2023-02-03T18:58:17.793Z,1.10
2023-02-03T19:00:46.139Z,0.90
2023-02-03T19:03:15.784Z,0.90
2023-02-03T19:05:44.956Z,1.40
2023-02-03T19:08:17.642Z,1.50
2023-02-03T19:14:03.795Z,1.37
2023-02-03T19:16:32.242Z,1.23
2023-02-03T19:19:06.046Z,1.40
2023-02-03T19:21:35.881Z,1.57
2023-02-03T19:24:07.142Z,2.17
2023-02-03T19:26:38.741Z,1.87
2023-02-03T19:29:07.394Z,1.50
2023-02-03T19:31:35.686Z,2.00
2023-02-03T19:34:09.042Z,1.60
2023-02-03T19:36:38.482Z,2.87
2023-02-03T19:39:18.824Z,10.63
2023-02-03T19:41:46.997Z,1.97
2023-02-03T19:44:20.789Z,3.80
2023-02-03T19:46:49.248Z,3.17
2023-02-03T19:49:19.010Z,4.67
2023-02-03T19:51:47.558Z,2.17
2023-02-03T19:54:17.270Z,2.20
2023-02-03T19:56:46.329Z,1.77
2023-02-03T19:59:14.612Z,1.93
2023-02-03T20:01:43.229Z,2.10
2023-02-03T20:04:11.467Z,1.90
2023-02-03T20:06:41.459Z,1.97
2023-02-03T20:09:10.070Z,2.53
2023-02-03T20:11:38.780Z,1.90
2023-02-03T20:14:07.395Z,1.80
2023-02-03T20:16:35.772Z,2.43
2023-02-03T20:19:04.243Z,2.23
2023-02-03T20:21:32.708Z,1.83
2023-02-03T20:24:02.651Z,1.93
2023-02-03T20:26:30.974Z,2.10
2023-02-03T20:28:59.344Z,2.27
2023-02-03T20:31:27.969Z,2.13
2023-02-03T20:33:58.338Z,2.13
2023-02-03T20:36:30.235Z,1.90
2023-02-03T20:39:03.943Z,1.67
2023-02-03T20:41:40.841Z,2.10
2023-02-03T20:44:11.469Z,2.37
2023-02-03T20:47:00.818Z,2.10
2023-02-03T20:53:12.240Z,1.70
2023-02-03T20:55:52.896Z,1.70
2023-02-03T20:58:52.900Z,2.30
2023-02-03T21:01:59.919Z,2.50
2023-02-03T21:05:03.214Z,2.13
2023-02-03T21:07:42.650Z,2.00
2023-02-03T21:10:35.397Z,2.90
2023-02-03T21:13:48.164Z,1.80
2023-02-03T21:16:32.268Z,2.23
2023-02-03T21:20:19.641Z,2.00
2023-02-03T21:23:02.540Z,2.70
2023-02-03T21:25:40.455Z,1.60
2023-02-03T21:28:42.844Z,2.47
2023-02-03T21:31:45.327Z,2.40
2023-02-03T21:38:44.719Z,1.90
2023-02-03T21:45:02.130Z,2.47
2023-02-03T21:48:33.085Z,2.70
2023-02-03T21:58:26.095Z,3.10
2023-02-03T22:00:56.869Z,2.27
2023-02-03T22:03:28.117Z,2.47
2023-02-03T22:06:16.182Z,1.80
2023-02-03T22:08:46.426Z,2.30
2023-02-03T22:11:14.973Z,2.03
2023-02-03T22:13:43.622Z,2.20
2023-02-03T22:20:18.760Z,1.90
2023-02-03T22:22:57.510Z,3.97
2023-02-03T22:25:30.594Z,2.00
2023-02-03T22:28:04.327Z,3.70
2023-02-03T22:30:38.746Z,3.73
2023-02-03T22:33:12.144Z,1.80
2023-02-03T22:35:44.917Z,4.00
2023-02-03T22:38:21.138Z,2.47
2023-02-03T22:40:54.165Z,2.20
2023-02-03T22:43:30.830Z,3.27
2023-02-03T22:46:01.741Z,2.23
2023-02-03T22:48:32.881Z,2.00
2023-02-03T22:51:02.680Z,2.13
2023-02-03T22:53:33.020Z,2.37
2023-02-03T22:56:01.394Z,2.33
2023-02-03T22:58:30.177Z,2.40
2023-02-03T23:00:58.554Z,2.40
2023-02-03T23:03:26.890Z,3.10
2023-02-03T23:05:59.234Z,2.40
2023-02-03T23:08:38.025Z,1.83
2023-02-03T23:11:16.887Z,2.20
2023-02-03T23:13:48.879Z,2.60
2023-02-03T23:16:18.122Z,2.33
2023-02-03T23:19:04.444Z,4.77
2023-02-03T23:22:05.327Z,8.13
2023-02-03T23:24:46.816Z,3.17
2023-02-03T23:27:50.202Z,2.37
2023-02-03T23:30:21.672Z,3.93
2023-02-03T23:32:50.534Z,2.20
2023-02-03T23:36:00.565Z,2.50
2023-02-03T23:38:38.393Z,2.80
2023-02-03T23:41:12.996Z,3.57
2023-02-03T23:44:52.049Z,3.90
2023-02-03T23:55:39.200Z,2.43
2023-02-03T23:58:12.232Z,4.30
